sensor_id;sensor_type;location;lat;lon;timestamp;pressure;altitude;pressure_sealevel;temperature;humidity
79625;BME280;69101;45.534;10.218;2023-06-26T00:01:17;99879.53;;;28.58;41.39
79625;BME280;69101;45.534;10.218;2023-06-26T00:03:46;99883.81;;;28.59;41.52
79625;BME280;69101;45.534;10.218;2023-06-26T00:06:11;99883.28;;;28.57;41.65
79625;BME280;69101;45.534;10.218;2023-06-26T00:08:36;99888.88;;;28.55;41.73
79625;BME280;69101;45.534;10.218;2023-06-26T00:11:02;99888.06;;;28.55;41.66
79625;BME280;69101;45.534;10.218;2023-06-26T00:13:28;99892.88;;;28.53;41.80
79625;BME280;69101;45.534;10.218;2023-06-26T00:15:53;99892.59;;;28.54;41.83
79625;BME280;69101;45.534;10.218;2023-06-26T00:18:18;99890.19;;;28.53;41.92
79625;BME280;69101;45.534;10.218;2023-06-26T00:20:44;99893.91;;;28.52;41.75
79625;BME280;69101;45.534;10.218;2023-06-26T00:23:11;99895.53;;;28.53;41.74
79625;BME280;69101;45.534;10.218;2023-06-26T00:25:37;99892.28;;;28.51;41.83
79625;BME280;69101;45.534;10.218;2023-06-26T00:28:02;99900.88;;;28.53;41.81
79625;BME280;69101;45.534;10.218;2023-06-26T00:30:27;99893.34;;;28.50;42.11
79625;BME280;69101;45.534;10.218;2023-06-26T00:32:53;99894.94;;;28.51;41.91
79625;BME280;69101;45.534;10.218;2023-06-26T00:35:18;99890.69;;;28.50;41.92
79625;BME280;69101;45.534;10.218;2023-06-26T00:37:44;99896.03;;;28.50;41.48
79625;BME280;69101;45.534;10.218;2023-06-26T00:40:09;99888.22;;;28.48;41.86
79625;BME280;69101;45.534;10.218;2023-06-26T00:42:35;99889.31;;;28.47;41.80
79625;BME280;69101;45.534;10.218;2023-06-26T00:45:00;99895.44;;;28.48;41.63
79625;BME280;69101;45.534;10.218;2023-06-26T00:47:26;99892.53;;;28.49;41.68
79625;BME280;69101;45.534;10.218;2023-06-26T00:49:52;99899.50;;;28.50;41.57
79625;BME280;69101;45.534;10.218;2023-06-26T00:52:19;99895.97;;;28.45;41.75
79625;BME280;69101;45.534;10.218;2023-06-26T00:54:45;99898.13;;;28.48;41.65
79625;BME280;69101;45.534;10.218;2023-06-26T00:57:10;99897.00;;;28.44;41.83
79625;BME280;69101;45.534;10.218;2023-06-26T00:59:36;99897.00;;;28.44;41.83
79625;BME280;69101;45.534;10.218;2023-06-26T01:02:01;99898.38;;;28.46;41.70
79625;BME280;69101;45.534;10.218;2023-06-26T01:04:27;99898.88;;;28.43;41.79
79625;BME280;69101;45.534;10.218;2023-06-26T01:06:59;99894.88;;;28.46;41.56
79625;BME280;69101;45.534;10.218;2023-06-26T01:09:25;99887.06;;;28.39;41.74
79625;BME280;69101;45.534;10.218;2023-06-26T01:11:51;99900.66;;;28.38;41.92
79625;BME280;69101;45.534;10.218;2023-06-26T01:14:17;99899.88;;;28.37;42.21
79625;BME280;69101;45.534;10.218;2023-06-26T01:16:43;99899.06;;;28.37;42.10
79625;BME280;69101;45.534;10.218;2023-06-26T01:19:31;99898.50;;;28.35;41.99
79625;BME280;69101;45.534;10.218;2023-06-26T01:22:16;99895.56;;;28.36;41.95
79625;BME280;69101;45.534;10.218;2023-06-26T01:27:45;99887.78;;;28.35;42.04
79625;BME280;69101;45.534;10.218;2023-06-26T01:30:12;99879.69;;;28.30;42.04
79625;BME280;69101;45.534;10.218;2023-06-26T01:32:39;99887.22;;;28.33;42.09
79625;BME280;69101;45.534;10.218;2023-06-26T01:35:07;99888.28;;;28.32;42.06
79625;BME280;69101;45.534;10.218;2023-06-26T01:37:32;99888.28;;;28.32;41.82
79625;BME280;69101;45.534;10.218;2023-06-26T01:39:58;99883.75;;;28.32;41.75
79625;BME280;69101;45.534;10.218;2023-06-26T01:42:23;99875.72;;;28.32;42.18
79625;BME280;69101;45.534;10.218;2023-06-26T01:44:49;99885.06;;;28.30;42.03
79625;BME280;69101;45.534;10.218;2023-06-26T01:47:22;99892.25;;;28.29;42.13
79625;BME280;69101;45.534;10.218;2023-06-26T01:50:02;99889.03;;;28.27;42.18
79625;BME280;69101;45.534;10.218;2023-06-26T01:52:52;99884.25;;;28.29;42.27
79625;BME280;69101;45.534;10.218;2023-06-26T01:55:32;99882.59;;;28.28;42.14
79625;BME280;69101;45.534;10.218;2023-06-26T01:58:02;99879.94;;;28.28;41.85
79625;BME280;69101;45.534;10.218;2023-06-26T02:00:27;99881.78;;;28.28;42.08
79625;BME280;69101;45.534;10.218;2023-06-26T02:02:53;99884.16;;;28.24;42.03
79625;BME280;69101;45.534;10.218;2023-06-26T02:05:19;99889.03;;;28.27;42.20
79625;BME280;69101;45.534;10.218;2023-06-26T02:07:44;99890.00;;;28.21;42.23
79625;BME280;69101;45.534;10.218;2023-06-26T02:10:10;99884.31;;;28.18;42.21
79625;BME280;69101;45.534;10.218;2023-06-26T02:12:36;99882.78;;;28.22;42.18
79625;BME280;69101;45.534;10.218;2023-06-26T02:15:02;99890.31;;;28.25;42.12
79625;BME280;69101;45.534;10.218;2023-06-26T02:17:28;99889.19;;;28.21;42.14
79625;BME280;69101;45.534;10.218;2023-06-26T02:19:53;99892.59;;;28.16;42.25
79625;BME280;69101;45.534;10.218;2023-06-26T02:22:18;99887.75;;;28.13;42.53
79625;BME280;69101;45.534;10.218;2023-06-26T02:24:44;99891.78;;;28.16;42.45
79625;BME280;69101;45.534;10.218;2023-06-26T02:27:10;99885.94;;;28.19;42.12
79625;BME280;69101;45.534;10.218;2023-06-26T02:29:36;99897.13;;;28.16;42.29
79625;BME280;69101;45.534;10.218;2023-06-26T02:32:01;99890.50;;;28.18;42.26
79625;BME280;69101;45.534;10.218;2023-06-26T02:34:27;99894.13;;;28.12;42.49
79625;BME280;69101;45.534;10.218;2023-06-26T02:36:53;99890.91;;;28.10;42.48
79625;BME280;69101;45.534;10.218;2023-06-26T02:39:21;99890.91;;;28.10;42.51
79625;BME280;69101;45.534;10.218;2023-06-26T02:41:46;99896.31;;;28.15;42.39
79625;BME280;69101;45.534;10.218;2023-06-26T02:44:12;99894.94;;;28.13;42.62
79625;BME280;69101;45.534;10.218;2023-06-26T02:46:38;99893.84;;;28.09;42.19
79625;BME280;69101;45.534;10.218;2023-06-26T02:49:03;99892.69;;;28.05;41.81
79625;BME280;69101;45.534;10.218;2023-06-26T02:51:29;99892.19;;;28.08;42.51
79625;BME280;69101;45.534;10.218;2023-06-26T02:53:55;99892.19;;;28.08;42.69
79625;BME280;69101;45.534;10.218;2023-06-26T02:56:20;99890.34;;;28.08;42.50
79625;BME280;69101;45.534;10.218;2023-06-26T02:58:45;99899.31;;;28.02;42.59
79625;BME280;69101;45.534;10.218;2023-06-26T03:01:11;99905.50;;;28.03;42.60
79625;BME280;69101;45.534;10.218;2023-06-26T03:03:36;99891.91;;;28.04;42.59
79625;BME280;69101;45.534;10.218;2023-06-26T03:06:06;99904.44;;;28.04;42.26
79625;BME280;69101;45.534;10.218;2023-06-26T03:08:36;99896.16;;;28.05;42.69
79625;BME280;69101;45.534;10.218;2023-06-26T03:11:02;99902.59;;;28.04;42.47
79625;BME280;69101;45.534;10.218;2023-06-26T03:13:27;99887.84;;;28.02;42.55
79625;BME280;69101;45.534;10.218;2023-06-26T03:15:52;99901.53;;;28.05;42.22
79625;BME280;69101;45.534;10.218;2023-06-26T03:18:18;99895.25;;;28.00;42.62
79625;BME280;69101;45.534;10.218;2023-06-26T03:20:43;99896.06;;;28.00;42.63
79625;BME280;69101;45.534;10.218;2023-06-26T03:23:09;99902.00;;;28.02;42.42
79625;BME280;69101;45.534;10.218;2023-06-26T03:25:34;99898.53;;;28.02;42.39
79625;BME280;69101;45.534;10.218;2023-06-26T03:27:59;99905.94;;;28.00;42.33
79625;BME280;69101;45.534;10.218;2023-06-26T03:30:25;99900.03;;;27.98;42.63
79625;BME280;69101;45.534;10.218;2023-06-26T03:32:50;99899.00;;;27.99;42.66
79625;BME280;69101;45.534;10.218;2023-06-26T03:35:15;99901.22;;;28.02;42.39
79625;BME280;69101;45.534;10.218;2023-06-26T03:37:41;99900.59;;;28.00;42.18
79625;BME280;69101;45.534;10.218;2023-06-26T03:40:07;99897.63;;;27.96;42.73
79625;BME280;69101;45.534;10.218;2023-06-26T03:42:32;99902.38;;;27.94;42.82
79625;BME280;69101;45.534;10.218;2023-06-26T03:44:58;99904.00;;;27.95;42.81
79625;BME280;69101;45.534;10.218;2023-06-26T03:47:23;99903.75;;;27.96;42.57
79625;BME280;69101;45.534;10.218;2023-06-26T03:49:48;99912.84;;;27.95;42.64
79625;BME280;69101;45.534;10.218;2023-06-26T03:52:14;99911.22;;;27.94;42.44
79625;BME280;69101;45.534;10.218;2023-06-26T03:54:39;99915.19;;;27.92;42.58
79625;BME280;69101;45.534;10.218;2023-06-26T03:57:04;99913.06;;;27.94;42.79
79625;BME280;69101;45.534;10.218;2023-06-26T03:59:30;99913.31;;;27.92;42.80
79625;BME280;69101;45.534;10.218;2023-06-26T04:01:55;99910.31;;;27.89;42.65
79625;BME280;69101;45.534;10.218;2023-06-26T04:04:21;99912.75;;;27.90;42.65
79625;BME280;69101;45.534;10.218;2023-06-26T04:06:47;99908.22;;;27.91;42.73
79625;BME280;69101;45.534;10.218;2023-06-26T04:09:12;99908.72;;;27.88;42.66
79625;BME280;69101;45.534;10.218;2023-06-26T04:11:37;99914.28;;;27.86;42.49
79625;BME280;69101;45.534;10.218;2023-06-26T04:14:03;99913.50;;;27.86;42.97
79625;BME280;69101;45.534;10.218;2023-06-26T04:16:28;99918.34;;;27.89;42.76
79625;BME280;69101;45.534;10.218;2023-06-26T04:18:53;99918.94;;;27.91;42.48
79625;BME280;69101;45.534;10.218;2023-06-26T04:21:21;99921.81;;;27.89;42.66
79625;BME280;69101;45.534;10.218;2023-06-26T04:23:49;99918.59;;;27.87;42.79
79625;BME280;69101;45.534;10.218;2023-06-26T04:26:14;99928.16;;;27.83;42.99
79625;BME280;69101;45.534;10.218;2023-06-26T04:28:40;99927.34;;;27.83;42.89
79625;BME280;69101;45.534;10.218;2023-06-26T04:31:05;99927.56;;;27.81;42.63
79625;BME280;69101;45.534;10.218;2023-06-26T04:33:31;99934.88;;;27.86;42.29
79625;BME280;69101;45.534;10.218;2023-06-26T04:35:58;99936.75;;;27.85;42.86
79625;BME280;69101;45.534;10.218;2023-06-26T04:38:24;99936.75;;;27.85;42.86
79625;BME280;69101;45.534;10.218;2023-06-26T04:40:50;99931.41;;;27.85;42.84
79625;BME280;69101;45.534;10.218;2023-06-26T04:43:15;99938.84;;;27.83;42.70
79625;BME280;69101;45.534;10.218;2023-06-26T04:45:41;99944.97;;;27.84;42.89
79625;BME280;69101;45.534;10.218;2023-06-26T04:48:06;99949.38;;;27.90;42.83
79625;BME280;69101;45.534;10.218;2023-06-26T04:50:32;99944.69;;;27.97;42.33
79625;BME280;69101;45.534;10.218;2023-06-26T04:52:58;99942.69;;;28.04;42.31
79625;BME280;69101;45.534;10.218;2023-06-26T04:55:24;99939.28;;;28.09;41.62
79625;BME280;69101;45.534;10.218;2023-06-26T04:57:50;99937.50;;;28.14;42.06
79625;BME280;69101;45.534;10.218;2023-06-26T05:00:16;99937.81;;;28.18;41.52
79625;BME280;69101;45.534;10.218;2023-06-26T05:02:41;99933.63;;;28.22;41.30
79625;BME280;69101;45.534;10.218;2023-06-26T05:05:07;99933.09;;;28.25;41.97
79625;BME280;69101;45.534;10.218;2023-06-26T05:07:32;99924.09;;;28.31;41.48
79625;BME280;69101;45.534;10.218;2023-06-26T05:09:58;99928.16;;;28.33;41.47
79625;BME280;69101;45.534;10.218;2023-06-26T05:12:23;99920.94;;;28.34;41.61
79625;BME280;69101;45.534;10.218;2023-06-26T05:14:48;99918.81;;;28.36;41.60
79625;BME280;69101;45.534;10.218;2023-06-26T05:17:14;99928.78;;;28.40;41.39
79625;BME280;69101;45.534;10.218;2023-06-26T05:19:40;99921.00;;;28.39;41.32
79625;BME280;69101;45.534;10.218;2023-06-26T05:22:06;99928.00;;;28.40;41.54
79625;BME280;69101;45.534;10.218;2023-06-26T05:24:35;99929.94;;;28.44;41.38
79625;BME280;69101;45.534;10.218;2023-06-26T05:27:01;99929.66;;;28.46;41.59
79625;BME280;69101;45.534;10.218;2023-06-26T05:29:27;99925.47;;;28.50;41.88
79625;BME280;69101;45.534;10.218;2023-06-26T05:31:55;99926.84;;;28.52;41.32
79625;BME280;69101;45.534;10.218;2023-06-26T05:34:22;99922.31;;;28.53;41.25
79625;BME280;69101;45.534;10.218;2023-06-26T05:36:50;99923.16;;;28.58;41.47
79625;BME280;69101;45.534;10.218;2023-06-26T05:39:16;99921.88;;;28.61;41.70
79625;BME280;69101;45.534;10.218;2023-06-26T05:41:43;99920.00;;;28.62;41.44
79625;BME280;69101;45.534;10.218;2023-06-26T05:44:09;99924.88;;;28.65;41.80
79625;BME280;69101;45.534;10.218;2023-06-26T05:46:34;99924.88;;;28.65;41.53
79625;BME280;69101;45.534;10.218;2023-06-26T05:48:59;99920.09;;;28.67;41.49
79625;BME280;69101;45.534;10.218;2023-06-26T05:51:26;99921.94;;;28.66;41.48
79625;BME280;69101;45.534;10.218;2023-06-26T05:53:52;99926.56;;;28.71;41.78
79625;BME280;69101;45.534;10.218;2023-06-26T05:56:18;99925.06;;;28.25;49.43
79625;BME280;69101;45.534;10.218;2023-06-26T05:58:44;99926.28;;;27.84;45.86
79625;BME280;69101;45.534;10.218;2023-06-26T06:01:09;99924.25;;;27.74;44.20
79625;BME280;69101;45.534;10.218;2023-06-26T06:03:34;99928.22;;;27.72;44.34
79625;BME280;69101;45.534;10.218;2023-06-26T06:06:00;99929.91;;;27.61;44.47
79625;BME280;69101;45.534;10.218;2023-06-26T06:08:25;99934.06;;;27.41;44.58
79625;BME280;69101;45.534;10.218;2023-06-26T06:10:51;99937.09;;;27.32;44.86
79625;BME280;69101;45.534;10.218;2023-06-26T06:13:16;99936.13;;;27.50;44.59
79625;BME280;69101;45.534;10.218;2023-06-26T06:15:41;99928.78;;;27.74;44.33
79625;BME280;69101;45.534;10.218;2023-06-26T06:18:07;99935.44;;;27.88;45.32
79625;BME280;69101;45.534;10.218;2023-06-26T06:20:32;99938.03;;;28.00;46.63
79625;BME280;69101;45.534;10.218;2023-06-26T06:22:57;99939.31;;;27.97;44.13
79625;BME280;69101;45.534;10.218;2023-06-26T06:25:23;99941.59;;;27.88;43.83
79625;BME280;69101;45.534;10.218;2023-06-26T06:27:48;99940.41;;;27.96;43.57
79625;BME280;69101;45.534;10.218;2023-06-26T06:30:14;99946.41;;;28.20;43.79
79625;BME280;69101;45.534;10.218;2023-06-26T06:32:39;99942.09;;;28.35;44.51
79625;BME280;69101;45.534;10.218;2023-06-26T06:35:05;99935.22;;;28.39;44.52
79625;BME280;69101;45.534;10.218;2023-06-26T06:37:38;99930.69;;;28.40;44.47
79625;BME280;69101;45.534;10.218;2023-06-26T06:40:05;99937.22;;;28.49;44.83
79625;BME280;69101;45.534;10.218;2023-06-26T06:42:31;99947.09;;;28.48;45.21
79625;BME280;69101;45.534;10.218;2023-06-26T06:44:57;99940.16;;;28.47;45.21
79625;BME280;69101;45.534;10.218;2023-06-26T06:47:23;99933.50;;;28.50;45.00
79625;BME280;69101;45.534;10.218;2023-06-26T06:49:48;99945.78;;;28.51;45.03
79625;BME280;69101;45.534;10.218;2023-06-26T06:52:13;99934.88;;;28.52;44.90
79625;BME280;69101;45.534;10.218;2023-06-26T06:54:56;99936.25;;;28.55;44.75
79625;BME280;69101;45.534;10.218;2023-06-26T06:57:24;99934.03;;;28.52;44.49
79625;BME280;69101;45.534;10.218;2023-06-26T06:59:49;99934.59;;;28.54;44.49
79625;BME280;69101;45.534;10.218;2023-06-26T07:02:18;99934.59;;;28.54;44.34
79625;BME280;69101;45.534;10.218;2023-06-26T07:04:43;99931.13;;;28.53;44.37
79625;BME280;69101;45.534;10.218;2023-06-26T07:07:09;99934.59;;;28.54;44.63
79625;BME280;69101;45.534;10.218;2023-06-26T07:09:35;99930.88;;;28.55;44.44
79625;BME280;69101;45.534;10.218;2023-06-26T07:12:01;99929.25;;;28.54;44.31
79625;BME280;69101;45.534;10.218;2023-06-26T07:14:26;99924.47;;;28.56;44.37
79625;BME280;69101;45.534;10.218;2023-06-26T07:16:51;99922.59;;;28.56;44.37
79625;BME280;69101;45.534;10.218;2023-06-26T07:19:17;99930.63;;;28.56;44.53
79625;BME280;69101;45.534;10.218;2023-06-26T07:21:42;99930.63;;;28.56;44.28
79625;BME280;69101;45.534;10.218;2023-06-26T07:24:09;99925.03;;;28.58;44.22
79625;BME280;69101;45.534;10.218;2023-06-26T07:26:35;99933.06;;;28.58;41.70
79625;BME280;69101;45.534;10.218;2023-06-26T07:29:00;99933.94;;;28.64;41.85
79625;BME280;69101;45.534;10.218;2023-06-26T07:31:25;99936.16;;;28.67;42.77
79625;BME280;69101;45.534;10.218;2023-06-26T07:33:51;99934.28;;;28.67;42.83
79625;BME280;69101;45.534;10.218;2023-06-26T07:36:16;99934.84;;;28.69;42.90
79625;BME280;69101;45.534;10.218;2023-06-26T07:38:41;99941.81;;;28.70;43.18
79625;BME280;69101;45.534;10.218;2023-06-26T07:41:07;99934.78;;;28.64;43.10
79625;BME280;69101;45.534;10.218;2023-06-26T07:43:32;99938.53;;;28.63;43.08
79625;BME280;69101;45.534;10.218;2023-06-26T07:45:57;99935.03;;;28.63;42.84
79625;BME280;69101;45.534;10.218;2023-06-26T07:48:26;99932.66;;;28.66;43.02
79625;BME280;69101;45.534;10.218;2023-06-26T07:50:51;99933.72;;;28.65;42.67
79625;BME280;69101;45.534;10.218;2023-06-26T07:53:17;99933.78;;;28.70;42.63
79625;BME280;69101;45.534;10.218;2023-06-26T07:55:42;99942.63;;;28.71;42.83
79625;BME280;69101;45.534;10.218;2023-06-26T07:58:08;99923.31;;;28.69;42.71
79625;BME280;69101;45.534;10.218;2023-06-26T08:00:33;99929.25;;;28.71;42.52
79625;BME280;69101;45.534;10.218;2023-06-26T08:02:59;99928.44;;;28.70;42.43
79625;BME280;69101;45.534;10.218;2023-06-26T08:05:24;99926.81;;;28.69;44.26
79625;BME280;69101;45.534;10.218;2023-06-26T08:07:50;99937.50;;;28.69;43.01
79625;BME280;69101;45.534;10.218;2023-06-26T08:10:15;99935.66;;;28.70;43.27
79625;BME280;69101;45.534;10.218;2023-06-26T08:12:41;99935.91;;;28.68;43.34
79625;BME280;69101;45.534;10.218;2023-06-26T08:15:08;99926.81;;;28.69;38.76
79625;BME280;69101;45.534;10.218;2023-06-26T08:17:35;99931.72;;;28.77;37.81
79625;BME280;69101;45.534;10.218;2023-06-26T08:20:01;99931.78;;;28.82;42.37
79625;BME280;69101;45.534;10.218;2023-06-26T08:22:27;99924.84;;;28.81;41.76
79625;BME280;69101;45.534;10.218;2023-06-26T08:24:52;99913.06;;;28.82;39.95
79625;BME280;69101;45.534;10.218;2023-06-26T08:27:17;99917.38;;;28.83;39.58
79625;BME280;69101;45.534;10.218;2023-06-26T08:29:43;99919.78;;;28.85;40.51
79625;BME280;69101;45.534;10.218;2023-06-26T08:32:08;99913.38;;;28.86;38.70
79625;BME280;69101;45.534;10.218;2023-06-26T08:34:33;99913.56;;;28.79;40.45
79625;BME280;69101;45.534;10.218;2023-06-26T08:36:59;99917.72;;;28.70;39.27
79625;BME280;69101;45.534;10.218;2023-06-26T08:39:24;99908.44;;;28.78;40.73
79625;BME280;69101;45.534;10.218;2023-06-26T08:41:50;99906.00;;;28.76;38.12
79625;BME280;69101;45.534;10.218;2023-06-26T08:44:15;99916.44;;;28.73;40.40
79625;BME280;69101;45.534;10.218;2023-06-26T08:46:41;99911.38;;;28.76;37.93
79625;BME280;69101;45.534;10.218;2023-06-26T08:49:21;99906.66;;;28.83;39.13
79625;BME280;69101;45.534;10.218;2023-06-26T08:52:02;99911.75;;;28.85;40.03
79625;BME280;69101;45.534;10.218;2023-06-26T08:54:32;99912.25;;;28.82;40.14
79625;BME280;69101;45.534;10.218;2023-06-26T08:56:59;99916.06;;;28.86;40.63
79625;BME280;69101;45.534;10.218;2023-06-26T08:59:25;99912.00;;;28.83;40.42
79625;BME280;69101;45.534;10.218;2023-06-26T09:01:51;99908.13;;;28.74;40.54
79625;BME280;69101;45.534;10.218;2023-06-26T09:04:16;99905.50;;;28.79;40.49
79625;BME280;69101;45.534;10.218;2023-06-26T09:06:42;99899.06;;;28.75;40.07
79625;BME280;69101;45.534;10.218;2023-06-26T09:09:09;99898.50;;;28.73;40.03
79625;BME280;69101;45.534;10.218;2023-06-26T09:11:35;99896.38;;;28.75;39.39
79625;BME280;69101;45.534;10.218;2023-06-26T09:14:01;99897.91;;;28.71;38.92
79625;BME280;69101;45.534;10.218;2023-06-26T09:16:30;99898.72;;;28.72;38.80
79625;BME280;69101;45.534;10.218;2023-06-26T09:18:56;99902.78;;;28.74;39.68
79625;BME280;69101;45.534;10.218;2023-06-26T09:21:22;99897.44;;;28.74;40.40
79625;BME280;69101;45.534;10.218;2023-06-26T09:23:49;99899.94;;;28.81;39.93
79625;BME280;69101;45.534;10.218;2023-06-26T09:26:15;99894.31;;;28.82;38.93
79625;BME280;69101;45.534;10.218;2023-06-26T09:28:42;99891.41;;;28.84;39.18
79625;BME280;69101;45.534;10.218;2023-06-26T09:31:07;99886.28;;;28.82;39.58
79625;BME280;69101;45.534;10.218;2023-06-26T09:33:37;99888.47;;;28.85;37.73
79625;BME280;69101;45.534;10.218;2023-06-26T09:36:18;99885.78;;;28.85;38.87
79625;BME280;69101;45.534;10.218;2023-06-26T09:38:44;99883.59;;;28.82;38.41
79625;BME280;69101;45.534;10.218;2023-06-26T09:41:10;99891.69;;;28.87;38.98
79625;BME280;69101;45.534;10.218;2023-06-26T09:43:45;99884.75;;;28.86;38.44
79625;BME280;69101;45.534;10.218;2023-06-26T09:46:15;99874.03;;;28.86;39.04
79625;BME280;69101;45.534;10.218;2023-06-26T09:48:40;99870.00;;;28.84;38.58
79625;BME280;69101;45.534;10.218;2023-06-26T09:51:06;99868.69;;;28.86;39.37
79625;BME280;69101;45.534;10.218;2023-06-26T09:53:34;99866.28;;;28.90;39.54
79625;BME280;69101;45.534;10.218;2023-06-26T09:56:07;99870.59;;;28.91;39.70
79625;BME280;69101;45.534;10.218;2023-06-26T09:58:42;99864.38;;;28.85;38.31
79625;BME280;69101;45.534;10.218;2023-06-26T10:01:08;99868.09;;;28.84;39.33
79625;BME280;69101;45.534;10.218;2023-06-26T10:03:35;99868.63;;;28.81;38.52
79625;BME280;69101;45.534;10.218;2023-06-26T10:06:02;99864.38;;;28.85;39.06
79625;BME280;69101;45.534;10.218;2023-06-26T10:08:28;99862.19;;;28.82;38.88
79625;BME280;69101;45.534;10.218;2023-06-26T10:10:56;99856.03;;;28.82;38.79
79625;BME280;69101;45.534;10.218;2023-06-26T10:13:26;99855.47;;;28.80;38.34
79625;BME280;69101;45.534;10.218;2023-06-26T10:15:53;99860.31;;;28.83;38.74
79625;BME280;69101;45.534;10.218;2023-06-26T10:18:21;99855.84;;;28.88;38.58
79625;BME280;69101;45.534;10.218;2023-06-26T10:20:50;99859.34;;;28.89;38.82
79625;BME280;69101;45.534;10.218;2023-06-26T10:23:19;99857.81;;;28.76;39.06
79625;BME280;69101;45.534;10.218;2023-06-26T10:25:47;99848.44;;;28.74;39.16
79625;BME280;69101;45.534;10.218;2023-06-26T10:28:15;99854.84;;;28.73;38.45
79625;BME280;69101;45.534;10.218;2023-06-26T10:30:43;99860.44;;;28.71;38.81
79625;BME280;69101;45.534;10.218;2023-06-26T10:33:09;99850.88;;;28.75;38.27
79625;BME280;69101;45.534;10.218;2023-06-26T10:35:42;99847.38;;;28.75;39.01
79625;BME280;69101;45.534;10.218;2023-06-26T10:38:07;99851.84;;;28.69;38.75
79625;BME280;69101;45.534;10.218;2023-06-26T10:40:46;99848.13;;;28.70;38.75
79625;BME280;69101;45.534;10.218;2023-06-26T10:43:14;99848.94;;;28.71;38.76
79625;BME280;69101;45.534;10.218;2023-06-26T10:45:48;99843.81;;;28.69;39.23
79625;BME280;69101;45.534;10.218;2023-06-26T10:48:19;99836.13;;;28.73;39.03
79625;BME280;69101;45.534;10.218;2023-06-26T10:50:48;99837.16;;;28.72;39.22
79625;BME280;69101;45.534;10.218;2023-06-26T10:56:00;99838.78;;;28.73;39.79
79625;BME280;69101;45.534;10.218;2023-06-26T11:04:04;99828.31;;;28.71;39.81
79625;BME280;69101;45.534;10.218;2023-06-26T11:06:30;99836.63;;;28.70;40.00
79625;BME280;69101;45.534;10.218;2023-06-26T11:14:22;99833.13;;;28.69;40.41
79625;BME280;69101;45.534;10.218;2023-06-26T11:16:48;99835.56;;;28.71;40.21
79625;BME280;69101;45.534;10.218;2023-06-26T11:19:18;99828.84;;;28.68;40.24
79625;BME280;69101;45.534;10.218;2023-06-26T11:21:44;99833.66;;;28.71;40.43
79625;BME280;69101;45.534;10.218;2023-06-26T11:24:11;99827.78;;;28.69;40.37
79625;BME280;69101;45.534;10.218;2023-06-26T11:26:41;99833.13;;;28.69;40.41
79625;BME280;69101;45.534;10.218;2023-06-26T11:29:06;99833.94;;;28.70;40.44
79625;BME280;69101;45.534;10.218;2023-06-26T11:31:34;99836.63;;;28.70;40.50
79625;BME280;69101;45.534;10.218;2023-06-26T11:34:06;99832.88;;;28.71;40.50
79625;BME280;69101;45.534;10.218;2023-06-26T11:36:32;99829.41;;;28.70;40.28
79625;BME280;69101;45.534;10.218;2023-06-26T11:39:03;99836.34;;;28.71;40.67
79625;BME280;69101;45.534;10.218;2023-06-26T11:41:31;99829.13;;;28.72;40.38
79625;BME280;69101;45.534;10.218;2023-06-26T11:44:04;99829.94;;;28.72;40.48
79625;BME280;69101;45.534;10.218;2023-06-26T11:46:30;99821.38;;;28.70;40.59
79625;BME280;69101;45.534;10.218;2023-06-26T11:48:56;99827.28;;;28.72;40.59
79625;BME280;69101;45.534;10.218;2023-06-26T11:51:22;99831.59;;;28.73;40.61
79625;BME280;69101;45.534;10.218;2023-06-26T11:53:48;99819.78;;;28.74;40.54
79625;BME280;69101;45.534;10.218;2023-06-26T11:56:15;99817.88;;;28.70;40.68
79625;BME280;69101;45.534;10.218;2023-06-26T12:04:03;99825.66;;;28.71;40.65
79625;BME280;69101;45.534;10.218;2023-06-26T12:06:33;99814.94;;;28.71;40.67
79625;BME280;69101;45.534;10.218;2023-06-26T12:09:01;99812.84;;;28.73;40.84
79625;BME280;69101;45.534;10.218;2023-06-26T12:11:30;99813.88;;;28.72;40.95
79625;BME280;69101;45.534;10.218;2023-06-26T12:13:57;99805.03;;;28.72;40.67
79625;BME280;69101;45.534;10.218;2023-06-26T12:16:23;99808.53;;;28.72;40.73
79625;BME280;69101;45.534;10.218;2023-06-26T12:18:48;99812.84;;;28.73;40.78
79625;BME280;69101;45.534;10.218;2023-06-26T12:23:59;99805.03;;;28.72;40.63
79625;BME280;69101;45.534;10.218;2023-06-26T12:26:26;99796.53;;;28.75;40.69
79625;BME280;69101;45.534;10.218;2023-06-26T12:28:51;99804.00;;;28.73;40.77
79625;BME280;69101;45.534;10.218;2023-06-26T12:31:20;99803.72;;;28.74;40.81
79625;BME280;69101;45.534;10.218;2023-06-26T12:33:46;99795.97;;;28.73;40.78
79625;BME280;69101;45.534;10.218;2023-06-26T12:36:12;99798.88;;;28.71;41.03
79625;BME280;69101;45.534;10.218;2023-06-26T12:38:37;99804.00;;;28.73;40.69
79625;BME280;69101;45.534;10.218;2023-06-26T12:41:03;99795.69;;;28.74;40.95
79625;BME280;69101;45.534;10.218;2023-06-26T12:43:28;99800.00;;;28.75;41.08
79625;BME280;69101;45.534;10.218;2023-06-26T12:45:55;99802.69;;;28.75;40.99
79625;BME280;69101;45.534;10.218;2023-06-26T12:48:21;99795.47;;;28.76;40.84
79625;BME280;69101;45.534;10.218;2023-06-26T12:50:46;99794.38;;;28.77;41.08
79625;BME280;69101;45.534;10.218;2023-06-26T12:53:12;99793.56;;;28.76;40.87
79625;BME280;69101;45.534;10.218;2023-06-26T12:55:38;99796.25;;;28.76;41.10
79625;BME280;69101;45.534;10.218;2023-06-26T12:58:03;99784.00;;;28.80;41.24
79625;BME280;69101;45.534;10.218;2023-06-26T13:00:29;99788.53;;;28.80;41.00
79625;BME280;69101;45.534;10.218;2023-06-26T13:02:55;99782.38;;;28.79;41.13
79625;BME280;69101;45.534;10.218;2023-06-26T13:05:21;99786.41;;;28.82;41.47
79625;BME280;69101;45.534;10.218;2023-06-26T13:07:46;99781.88;;;28.82;41.57
79625;BME280;69101;45.534;10.218;2023-06-26T13:10:12;99775.97;;;28.80;41.47
79625;BME280;69101;45.534;10.218;2023-06-26T13:12:37;99774.09;;;28.81;41.30